sensor_id;sensor_type;location;lat;lon;timestamp;temperature;humidity
59961;DHT22;55902;-37.980;-63.602;2023-08-17T00:02:02;8.90;93.30
59961;DHT22;55902;-37.980;-63.602;2023-08-17T00:04:29;8.90;93.60
59961;DHT22;55902;-37.980;-63.602;2023-08-17T00:06:57;8.80;93.70
59961;DHT22;55902;-37.980;-63.602;2023-08-17T00:09:24;8.80;93.80
59961;DHT22;55902;-37.980;-63.602;2023-08-17T00:11:52;8.70;93.60
59961;DHT22;55902;-37.980;-63.602;2023-08-17T00:14:19;8.70;94.00
59961;DHT22;55902;-37.980;-63.602;2023-08-17T00:16:46;8.60;93.80
59961;DHT22;55902;-37.980;-63.602;2023-08-17T00:19:13;8.60;94.20
59961;DHT22;55902;-37.980;-63.602;2023-08-17T00:21:40;8.50;94.20
59961;DHT22;55902;-37.980;-63.602;2023-08-17T00:24:07;8.50;94.30
59961;DHT22;55902;-37.980;-63.602;2023-08-17T00:26:34;8.50;94.50
59961;DHT22;55902;-37.980;-63.602;2023-08-17T00:29:02;8.40;94.40
59961;DHT22;55902;-37.980;-63.602;2023-08-17T00:31:29;8.40;94.30
59961;DHT22;55902;-37.980;-63.602;2023-08-17T00:33:56;8.40;94.50
59961;DHT22;55902;-37.980;-63.602;2023-08-17T00:36:23;8.30;94.30
59961;DHT22;55902;-37.980;-63.602;2023-08-17T00:38:50;8.30;94.30
59961;DHT22;55902;-37.980;-63.602;2023-08-17T00:41:17;8.30;94.20
59961;DHT22;55902;-37.980;-63.602;2023-08-17T00:43:44;8.30;94.50
59961;DHT22;55902;-37.980;-63.602;2023-08-17T00:46:12;8.20;94.10
59961;DHT22;55902;-37.980;-63.602;2023-08-17T00:48:40;8.20;94.50
59961;DHT22;55902;-37.980;-63.602;2023-08-17T00:51:07;8.20;94.20
59961;DHT22;55902;-37.980;-63.602;2023-08-17T00:53:35;8.20;94.40
59961;DHT22;55902;-37.980;-63.602;2023-08-17T00:56:03;8.20;94.40
59961;DHT22;55902;-37.980;-63.602;2023-08-17T00:58:31;8.20;94.40
59961;DHT22;55902;-37.980;-63.602;2023-08-17T01:00:59;8.10;94.50
59961;DHT22;55902;-37.980;-63.602;2023-08-17T01:03:28;8.10;94.60
59961;DHT22;55902;-37.980;-63.602;2023-08-17T01:05:57;8.00;95.00
59961;DHT22;55902;-37.980;-63.602;2023-08-17T01:08:26;8.00;94.80
59961;DHT22;55902;-37.980;-63.602;2023-08-17T01:13:47;8.00;94.70
59961;DHT22;55902;-37.980;-63.602;2023-08-17T01:16:24;8.00;94.90
59961;DHT22;55902;-37.980;-63.602;2023-08-17T01:18:55;7.90;95.00
59961;DHT22;55902;-37.980;-63.602;2023-08-17T01:21:36;7.90;95.00
59961;DHT22;55902;-37.980;-63.602;2023-08-17T01:24:04;7.90;95.00
59961;DHT22;55902;-37.980;-63.602;2023-08-17T01:26:31;7.90;95.20
59961;DHT22;55902;-37.980;-63.602;2023-08-17T01:28:58;7.90;95.40
59961;DHT22;55902;-37.980;-63.602;2023-08-17T01:31:35;7.90;95.30
59961;DHT22;55902;-37.980;-63.602;2023-08-17T01:34:12;7.90;95.20
59961;DHT22;55902;-37.980;-63.602;2023-08-17T01:36:52;7.90;95.30
59961;DHT22;55902;-37.980;-63.602;2023-08-17T01:39:23;7.80;95.50
59961;DHT22;55902;-37.980;-63.602;2023-08-17T01:41:55;7.90;95.60
59961;DHT22;55902;-37.980;-63.602;2023-08-17T01:44:25;7.90;95.40
59961;DHT22;55902;-37.980;-63.602;2023-08-17T01:46:53;7.80;95.40
59961;DHT22;55902;-37.980;-63.602;2023-08-17T01:49:23;7.80;95.40
59961;DHT22;55902;-37.980;-63.602;2023-08-17T01:51:50;7.80;95.50
59961;DHT22;55902;-37.980;-63.602;2023-08-17T01:54:17;7.90;95.60
59961;DHT22;55902;-37.980;-63.602;2023-08-17T01:56:44;7.80;95.80
59961;DHT22;55902;-37.980;-63.602;2023-08-17T01:59:11;7.80;95.70
59961;DHT22;55902;-37.980;-63.602;2023-08-17T02:01:39;7.90;95.70
59961;DHT22;55902;-37.980;-63.602;2023-08-17T02:04:06;7.90;95.70
59961;DHT22;55902;-37.980;-63.602;2023-08-17T02:06:33;7.80;95.70
59961;DHT22;55902;-37.980;-63.602;2023-08-17T02:09:00;7.80;95.70
59961;DHT22;55902;-37.980;-63.602;2023-08-17T02:11:27;7.90;95.80
59961;DHT22;55902;-37.980;-63.602;2023-08-17T02:13:54;7.90;95.80
59961;DHT22;55902;-37.980;-63.602;2023-08-17T02:16:21;7.90;95.80
59961;DHT22;55902;-37.980;-63.602;2023-08-17T02:18:49;7.80;95.90
59961;DHT22;55902;-37.980;-63.602;2023-08-17T02:21:16;7.90;95.80
59961;DHT22;55902;-37.980;-63.602;2023-08-17T02:23:43;7.90;95.90
59961;DHT22;55902;-37.980;-63.602;2023-08-17T02:26:10;7.90;95.90
59961;DHT22;55902;-37.980;-63.602;2023-08-17T02:28:37;7.90;95.90
59961;DHT22;55902;-37.980;-63.602;2023-08-17T02:34:26;7.80;95.90
59961;DHT22;55902;-37.980;-63.602;2023-08-17T02:37:19;7.90;96.10
59961;DHT22;55902;-37.980;-63.602;2023-08-17T02:39:46;7.90;96.10
59961;DHT22;55902;-37.980;-63.602;2023-08-17T02:42:13;7.90;96.30
59961;DHT22;55902;-37.980;-63.602;2023-08-17T02:44:40;7.80;96.40
59961;DHT22;55902;-37.980;-63.602;2023-08-17T02:51:13;7.80;96.40
59961;DHT22;55902;-37.980;-63.602;2023-08-17T02:53:41;7.80;96.50
59961;DHT22;55902;-37.980;-63.602;2023-08-17T02:56:08;7.80;96.70
59961;DHT22;55902;-37.980;-63.602;2023-08-17T02:58:39;7.80;96.80
59961;DHT22;55902;-37.980;-63.602;2023-08-17T03:01:09;7.80;96.90
59961;DHT22;55902;-37.980;-63.602;2023-08-17T03:03:36;7.80;97.00
59961;DHT22;55902;-37.980;-63.602;2023-08-17T03:06:04;7.80;96.90
59961;DHT22;55902;-37.980;-63.602;2023-08-17T03:08:32;7.80;97.20
59961;DHT22;55902;-37.980;-63.602;2023-08-17T03:10:59;7.80;97.20
59961;DHT22;55902;-37.980;-63.602;2023-08-17T03:13:26;7.70;97.20
59961;DHT22;55902;-37.980;-63.602;2023-08-17T03:15:54;7.80;97.30
59961;DHT22;55902;-37.980;-63.602;2023-08-17T03:18:21;7.70;97.40
59961;DHT22;55902;-37.980;-63.602;2023-08-17T03:20:48;7.70;97.50
59961;DHT22;55902;-37.980;-63.602;2023-08-17T03:23:15;7.70;97.50
59961;DHT22;55902;-37.980;-63.602;2023-08-17T03:25:42;7.70;97.70
59961;DHT22;55902;-37.980;-63.602;2023-08-17T03:28:09;7.70;97.80
59961;DHT22;55902;-37.980;-63.602;2023-08-17T03:30:36;7.70;98.00
59961;DHT22;55902;-37.980;-63.602;2023-08-17T03:33:04;7.70;98.00
59961;DHT22;55902;-37.980;-63.602;2023-08-17T03:35:31;7.80;98.20
59961;DHT22;55902;-37.980;-63.602;2023-08-17T03:37:58;7.80;98.30
59961;DHT22;55902;-37.980;-63.602;2023-08-17T03:40:25;7.80;98.40
59961;DHT22;55902;-37.980;-63.602;2023-08-17T03:42:52;7.90;98.50
59961;DHT22;55902;-37.980;-63.602;2023-08-17T03:45:19;8.00;98.60
59961;DHT22;55902;-37.980;-63.602;2023-08-17T03:47:46;8.00;98.80
59961;DHT22;55902;-37.980;-63.602;2023-08-17T03:50:13;8.10;98.90
59961;DHT22;55902;-37.980;-63.602;2023-08-17T03:52:40;8.10;99.10
59961;DHT22;55902;-37.980;-63.602;2023-08-17T03:55:07;8.10;99.10
59961;DHT22;55902;-37.980;-63.602;2023-08-17T03:57:34;8.20;99.20
59961;DHT22;55902;-37.980;-63.602;2023-08-17T04:00:01;8.20;99.20
59961;DHT22;55902;-37.980;-63.602;2023-08-17T04:02:28;8.30;99.20
59961;DHT22;55902;-37.980;-63.602;2023-08-17T04:04:55;8.30;99.40
59961;DHT22;55902;-37.980;-63.602;2023-08-17T04:07:22;8.30;99.60
59961;DHT22;55902;-37.980;-63.602;2023-08-17T04:09:50;8.30;99.60
59961;DHT22;55902;-37.980;-63.602;2023-08-17T04:12:17;8.30;99.70
59961;DHT22;55902;-37.980;-63.602;2023-08-17T04:14:45;8.40;99.90
59961;DHT22;55902;-37.980;-63.602;2023-08-17T04:17:12;8.30;99.90
59961;DHT22;55902;-37.980;-63.602;2023-08-17T04:19:39;8.40;99.90
59961;DHT22;55902;-37.980;-63.602;2023-08-17T04:22:06;8.30;99.90
59961;DHT22;55902;-37.980;-63.602;2023-08-17T04:24:33;8.40;99.90
59961;DHT22;55902;-37.980;-63.602;2023-08-17T04:27:00;8.40;99.90
59961;DHT22;55902;-37.980;-63.602;2023-08-17T04:29:27;8.40;99.90
59961;DHT22;55902;-37.980;-63.602;2023-08-17T04:31:54;8.50;99.90
59961;DHT22;55902;-37.980;-63.602;2023-08-17T04:34:21;8.50;99.90
59961;DHT22;55902;-37.980;-63.602;2023-08-17T04:36:48;8.50;99.90
59961;DHT22;55902;-37.980;-63.602;2023-08-17T04:39:15;8.50;99.90
59961;DHT22;55902;-37.980;-63.602;2023-08-17T04:41:43;8.50;99.90
59961;DHT22;55902;-37.980;-63.602;2023-08-17T04:44:10;8.60;99.90
59961;DHT22;55902;-37.980;-63.602;2023-08-17T04:46:38;8.60;99.90
59961;DHT22;55902;-37.980;-63.602;2023-08-17T04:49:05;8.50;99.90
59961;DHT22;55902;-37.980;-63.602;2023-08-17T04:51:32;8.50;99.90
59961;DHT22;55902;-37.980;-63.602;2023-08-17T04:53:59;8.60;99.90
59961;DHT22;55902;-37.980;-63.602;2023-08-17T04:56:26;8.60;99.90
59961;DHT22;55902;-37.980;-63.602;2023-08-17T04:58:54;8.60;99.90
59961;DHT22;55902;-37.980;-63.602;2023-08-17T05:01:21;8.60;99.90
59961;DHT22;55902;-37.980;-63.602;2023-08-17T05:03:48;8.60;99.90
59961;DHT22;55902;-37.980;-63.602;2023-08-17T05:06:15;8.60;99.90
59961;DHT22;55902;-37.980;-63.602;2023-08-17T05:08:42;8.60;99.90
59961;DHT22;55902;-37.980;-63.602;2023-08-17T05:11:10;8.60;99.90
59961;DHT22;55902;-37.980;-63.602;2023-08-17T05:23:43;8.60;99.90
59961;DHT22;55902;-37.980;-63.602;2023-08-17T05:26:10;8.60;99.90
59961;DHT22;55902;-37.980;-63.602;2023-08-17T05:28:37;8.60;99.90
59961;DHT22;55902;-37.980;-63.602;2023-08-17T05:31:06;8.60;99.90
59961;DHT22;55902;-37.980;-63.602;2023-08-17T05:33:33;8.60;99.90
59961;DHT22;55902;-37.980;-63.602;2023-08-17T05:36:00;8.60;99.90
59961;DHT22;55902;-37.980;-63.602;2023-08-17T05:38:27;8.60;99.90
59961;DHT22;55902;-37.980;-63.602;2023-08-17T05:40:58;8.60;99.90
59961;DHT22;55902;-37.980;-63.602;2023-08-17T05:43:26;8.60;99.90
59961;DHT22;55902;-37.980;-63.602;2023-08-17T05:45:53;8.60;99.90
59961;DHT22;55902;-37.980;-63.602;2023-08-17T05:48:21;8.70;99.90
59961;DHT22;55902;-37.980;-63.602;2023-08-17T05:50:48;8.70;99.90
59961;DHT22;55902;-37.980;-63.602;2023-08-17T05:53:15;8.70;99.90
59961;DHT22;55902;-37.980;-63.602;2023-08-17T05:55:42;8.70;99.90
59961;DHT22;55902;-37.980;-63.602;2023-08-17T05:58:09;8.70;99.90
59961;DHT22;55902;-37.980;-63.602;2023-08-17T06:00:37;8.80;99.90
59961;DHT22;55902;-37.980;-63.602;2023-08-17T06:03:04;8.80;99.90
59961;DHT22;55902;-37.980;-63.602;2023-08-17T06:05:31;8.80;99.90
59961;DHT22;55902;-37.980;-63.602;2023-08-17T06:07:58;8.80;99.90
59961;DHT22;55902;-37.980;-63.602;2023-08-17T06:10:26;8.80;99.90
59961;DHT22;55902;-37.980;-63.602;2023-08-17T06:12:56;8.80;99.90
59961;DHT22;55902;-37.980;-63.602;2023-08-17T06:15:24;8.80;99.90
59961;DHT22;55902;-37.980;-63.602;2023-08-17T06:17:51;8.80;99.90
59961;DHT22;55902;-37.980;-63.602;2023-08-17T06:20:19;8.80;99.90
59961;DHT22;55902;-37.980;-63.602;2023-08-17T06:22:47;8.80;99.90
59961;DHT22;55902;-37.980;-63.602;2023-08-17T06:25:16;8.80;99.90
59961;DHT22;55902;-37.980;-63.602;2023-08-17T06:27:43;8.80;99.90
59961;DHT22;55902;-37.980;-63.602;2023-08-17T06:30:11;8.80;99.90
59961;DHT22;55902;-37.980;-63.602;2023-08-17T06:32:38;8.80;99.90
59961;DHT22;55902;-37.980;-63.602;2023-08-17T06:35:06;8.80;99.90
59961;DHT22;55902;-37.980;-63.602;2023-08-17T06:37:33;8.80;99.90
59961;DHT22;55902;-37.980;-63.602;2023-08-17T06:40:00;8.70;99.90
59961;DHT22;55902;-37.980;-63.602;2023-08-17T06:42:28;8.80;99.90
59961;DHT22;55902;-37.980;-63.602;2023-08-17T06:44:55;8.80;99.90
59961;DHT22;55902;-37.980;-63.602;2023-08-17T06:47:22;8.90;99.90
59961;DHT22;55902;-37.980;-63.602;2023-08-17T06:49:49;8.90;99.90
59961;DHT22;55902;-37.980;-63.602;2023-08-17T06:52:16;8.90;99.90
59961;DHT22;55902;-37.980;-63.602;2023-08-17T06:54:43;8.90;99.90
59961;DHT22;55902;-37.980;-63.602;2023-08-17T06:57:10;8.90;99.90
59961;DHT22;55902;-37.980;-63.602;2023-08-17T06:59:37;9.00;99.90
59961;DHT22;55902;-37.980;-63.602;2023-08-17T07:02:04;9.00;99.90
59961;DHT22;55902;-37.980;-63.602;2023-08-17T07:07:53;9.00;99.90
59961;DHT22;55902;-37.980;-63.602;2023-08-17T07:10:21;9.00;99.90
59961;DHT22;55902;-37.980;-63.602;2023-08-17T07:12:48;9.00;99.90
59961;DHT22;55902;-37.980;-63.602;2023-08-17T07:15:15;9.00;99.90
59961;DHT22;55902;-37.980;-63.602;2023-08-17T07:17:42;9.00;99.90
59961;DHT22;55902;-37.980;-63.602;2023-08-17T07:20:10;9.00;99.90
59961;DHT22;55902;-37.980;-63.602;2023-08-17T07:22:37;9.00;99.90
59961;DHT22;55902;-37.980;-63.602;2023-08-17T07:25:05;9.00;99.90
59961;DHT22;55902;-37.980;-63.602;2023-08-17T07:27:32;9.10;99.90
59961;DHT22;55902;-37.980;-63.602;2023-08-17T07:29:59;9.10;99.90
59961;DHT22;55902;-37.980;-63.602;2023-08-17T07:32:26;9.10;99.90
59961;DHT22;55902;-37.980;-63.602;2023-08-17T07:34:53;9.10;99.90
59961;DHT22;55902;-37.980;-63.602;2023-08-17T07:40:42;9.10;99.90
59961;DHT22;55902;-37.980;-63.602;2023-08-17T07:43:10;9.10;99.90
59961;DHT22;55902;-37.980;-63.602;2023-08-17T07:45:37;9.10;99.90
59961;DHT22;55902;-37.980;-63.602;2023-08-17T07:48:04;9.10;99.90
59961;DHT22;55902;-37.980;-63.602;2023-08-17T07:57:53;9.10;99.90
59961;DHT22;55902;-37.980;-63.602;2023-08-17T08:00:21;9.20;99.90
59961;DHT22;55902;-37.980;-63.602;2023-08-17T08:02:48;9.10;99.90
59961;DHT22;55902;-37.980;-63.602;2023-08-17T08:05:15;9.10;99.90
59961;DHT22;55902;-37.980;-63.602;2023-08-17T08:07:42;9.10;99.90
59961;DHT22;55902;-37.980;-63.602;2023-08-17T08:10:09;9.10;99.90
59961;DHT22;55902;-37.980;-63.602;2023-08-17T08:12:36;9.10;99.90
59961;DHT22;55902;-37.980;-63.602;2023-08-17T08:15:03;9.10;99.90
59961;DHT22;55902;-37.980;-63.602;2023-08-17T08:17:30;9.10;99.90
59961;DHT22;55902;-37.980;-63.602;2023-08-17T08:19:58;9.10;99.90
59961;DHT22;55902;-37.980;-63.602;2023-08-17T08:22:25;9.10;99.90
59961;DHT22;55902;-37.980;-63.602;2023-08-17T08:24:52;9.00;99.90
59961;DHT22;55902;-37.980;-63.602;2023-08-17T08:27:19;9.00;99.90
59961;DHT22;55902;-37.980;-63.602;2023-08-17T08:29:47;9.00;99.90
59961;DHT22;55902;-37.980;-63.602;2023-08-17T08:32:14;9.00;99.90
59961;DHT22;55902;-37.980;-63.602;2023-08-17T08:34:41;9.00;99.90
59961;DHT22;55902;-37.980;-63.602;2023-08-17T08:37:08;9.00;99.90
59961;DHT22;55902;-37.980;-63.602;2023-08-17T08:39:54;9.10;99.90
59961;DHT22;55902;-37.980;-63.602;2023-08-17T08:42:23;9.10;99.90
59961;DHT22;55902;-37.980;-63.602;2023-08-17T08:44:50;9.00;99.90
59961;DHT22;55902;-37.980;-63.602;2023-08-17T08:47:18;9.00;99.90
59961;DHT22;55902;-37.980;-63.602;2023-08-17T08:50:00;9.00;99.90
59961;DHT22;55902;-37.980;-63.602;2023-08-17T08:52:36;9.10;99.90
59961;DHT22;55902;-37.980;-63.602;2023-08-17T08:55:14;9.10;99.90
59961;DHT22;55902;-37.980;-63.602;2023-08-17T08:57:42;9.00;99.90
59961;DHT22;55902;-37.980;-63.602;2023-08-17T09:00:12;9.00;99.90
59961;DHT22;55902;-37.980;-63.602;2023-08-17T09:02:40;9.00;99.90
59961;DHT22;55902;-37.980;-63.602;2023-08-17T09:05:10;9.00;99.90
59961;DHT22;55902;-37.980;-63.602;2023-08-17T09:07:38;9.00;99.90
59961;DHT22;55902;-37.980;-63.602;2023-08-17T09:10:10;9.10;99.90
59961;DHT22;55902;-37.980;-63.602;2023-08-17T09:12:38;9.10;99.90
59961;DHT22;55902;-37.980;-63.602;2023-08-17T09:15:06;9.10;99.90
59961;DHT22;55902;-37.980;-63.602;2023-08-17T09:17:33;9.20;99.90
59961;DHT22;55902;-37.980;-63.602;2023-08-17T09:20:03;9.10;99.90
59961;DHT22;55902;-37.980;-63.602;2023-08-17T09:22:41;9.10;99.90
59961;DHT22;55902;-37.980;-63.602;2023-08-17T09:25:10;9.10;99.90
59961;DHT22;55902;-37.980;-63.602;2023-08-17T09:27:39;9.10;99.90
59961;DHT22;55902;-37.980;-63.602;2023-08-17T09:30:09;9.20;99.90
59961;DHT22;55902;-37.980;-63.602;2023-08-17T09:32:37;9.20;99.90
59961;DHT22;55902;-37.980;-63.602;2023-08-17T09:35:05;9.20;99.90
59961;DHT22;55902;-37.980;-63.602;2023-08-17T09:37:33;9.20;99.90
59961;DHT22;55902;-37.980;-63.602;2023-08-17T09:40:01;9.20;99.90
59961;DHT22;55902;-37.980;-63.602;2023-08-17T09:42:28;9.20;99.90
59961;DHT22;55902;-37.980;-63.602;2023-08-17T09:44:58;9.20;99.90
59961;DHT22;55902;-37.980;-63.602;2023-08-17T09:47:27;9.20;99.90
59961;DHT22;55902;-37.980;-63.602;2023-08-17T09:49:55;9.20;99.90
59961;DHT22;55902;-37.980;-63.602;2023-08-17T09:52:23;9.20;99.90
59961;DHT22;55902;-37.980;-63.602;2023-08-17T09:54:52;9.10;99.90
59961;DHT22;55902;-37.980;-63.602;2023-08-17T09:57:21;9.10;99.90
59961;DHT22;55902;-37.980;-63.602;2023-08-17T09:59:48;9.00;99.90
59961;DHT22;55902;-37.980;-63.602;2023-08-17T10:02:23;8.90;99.90
59961;DHT22;55902;-37.980;-63.602;2023-08-17T10:04:55;8.90;99.90
59961;DHT22;55902;-37.980;-63.602;2023-08-17T10:07:29;8.80;99.90
59961;DHT22;55902;-37.980;-63.602;2023-08-17T10:10:03;8.80;99.90
59961;DHT22;55902;-37.980;-63.602;2023-08-17T10:12:37;8.70;99.90
59961;DHT22;55902;-37.980;-63.602;2023-08-17T10:15:08;8.70;99.90
59961;DHT22;55902;-37.980;-63.602;2023-08-17T10:21:13;8.80;99.90
59961;DHT22;55902;-37.980;-63.602;2023-08-17T10:23:48;8.80;99.90
59961;DHT22;55902;-37.980;-63.602;2023-08-17T10:26:15;8.80;99.90
59961;DHT22;55902;-37.980;-63.602;2023-08-17T10:28:46;8.80;99.90
59961;DHT22;55902;-37.980;-63.602;2023-08-17T10:31:14;8.80;99.90
59961;DHT22;55902;-37.980;-63.602;2023-08-17T10:33:41;8.80;99.90
59961;DHT22;55902;-37.980;-63.602;2023-08-17T10:36:18;8.80;99.90
59961;DHT22;55902;-37.980;-63.602;2023-08-17T10:38:46;8.80;99.90
59961;DHT22;55902;-37.980;-63.602;2023-08-17T10:41:15;8.80;99.90
59961;DHT22;55902;-37.980;-63.602;2023-08-17T10:44:08;8.80;99.90
59961;DHT22;55902;-37.980;-63.602;2023-08-17T10:46:37;8.70;99.90
59961;DHT22;55902;-37.980;-63.602;2023-08-17T10:49:25;8.70;99.90
59961;DHT22;55902;-37.980;-63.602;2023-08-17T10:52:03;8.80;99.90
59961;DHT22;55902;-37.980;-63.602;2023-08-17T10:54:40;8.70;99.90
59961;DHT22;55902;-37.980;-63.602;2023-08-17T10:57:30;8.70;99.90
59961;DHT22;55902;-37.980;-63.602;2023-08-17T11:00:25;8.70;99.90
59961;DHT22;55902;-37.980;-63.602;2023-08-17T11:03:04;8.70;99.90
59961;DHT22;55902;-37.980;-63.602;2023-08-17T11:08:32;8.70;99.90
59961;DHT22;55902;-37.980;-63.602;2023-08-17T11:11:15;8.70;99.90
59961;DHT22;55902;-37.980;-63.602;2023-08-17T11:13:44;8.70;99.90
59961;DHT22;55902;-37.980;-63.602;2023-08-17T11:16:16;8.70;99.90
59961;DHT22;55902;-37.980;-63.602;2023-08-17T11:18:49;8.70;99.90
59961;DHT22;55902;-37.980;-63.602;2023-08-17T11:21:17;8.70;99.90
59961;DHT22;55902;-37.980;-63.602;2023-08-17T11:23:47;8.80;99.90
59961;DHT22;55902;-37.980;-63.602;2023-08-17T11:26:50;8.80;99.90
59961;DHT22;55902;-37.980;-63.602;2023-08-17T11:29:18;8.90;99.90
59961;DHT22;55902;-37.980;-63.602;2023-08-17T11:31:46;8.90;99.90
59961;DHT22;55902;-37.980;-63.602;2023-08-17T11:34:23;9.00;99.90
59961;DHT22;55902;-37.980;-63.602;2023-08-17T11:36:51;9.00;99.90
59961;DHT22;55902;-37.980;-63.602;2023-08-17T11:39:19;9.00;99.90
59961;DHT22;55902;-37.980;-63.602;2023-08-17T11:41:50;9.00;99.90
59961;DHT22;55902;-37.980;-63.602;2023-08-17T11:44:19;9.10;99.90
59961;DHT22;55902;-37.980;-63.602;2023-08-17T11:46:48;9.10;99.90
59961;DHT22;55902;-37.980;-63.602;2023-08-17T11:49:19;9.10;99.90
59961;DHT22;55902;-37.980;-63.602;2023-08-17T11:51:51;9.10;99.90
59961;DHT22;55902;-37.980;-63.602;2023-08-17T11:54:18;9.10;99.90
59961;DHT22;55902;-37.980;-63.602;2023-08-17T11:56:48;9.20;99.90
59961;DHT22;55902;-37.980;-63.602;2023-08-17T11:59:20;9.20;99.90
59961;DHT22;55902;-37.980;-63.602;2023-08-17T12:01:50;9.20;99.90
59961;DHT22;55902;-37.980;-63.602;2023-08-17T12:04:22;9.20;99.90
59961;DHT22;55902;-37.980;-63.602;2023-08-17T12:06:52;9.20;99.90
59961;DHT22;55902;-37.980;-63.602;2023-08-17T12:09:19;9.20;99.90
59961;DHT22;55902;-37.980;-63.602;2023-08-17T12:11:58;9.20;99.90
59961;DHT22;55902;-37.980;-63.602;2023-08-17T12:14:27;9.20;99.90
59961;DHT22;55902;-37.980;-63.602;2023-08-17T12:16:55;9.20;99.90
59961;DHT22;55902;-37.980;-63.602;2023-08-17T12:19:25;9.30;99.90
59961;DHT22;55902;-37.980;-63.602;2023-08-17T12:21:52;9.30;99.90
59961;DHT22;55902;-37.980;-63.602;2023-08-17T12:24:24;9.30;99.90
59961;DHT22;55902;-37.980;-63.602;2023-08-17T12:26:57;9.20;99.90
59961;DHT22;55902;-37.980;-63.602;2023-08-17T12:29:28;9.20;99.90
59961;DHT22;55902;-37.980;-63.602;2023-08-17T12:32:02;9.20;99.90
59961;DHT22;55902;-37.980;-63.602;2023-08-17T12:34:29;9.30;99.90
59961;DHT22;55902;-37.980;-63.602;2023-08-17T12:36:56;9.30;99.90
59961;DHT22;55902;-37.980;-63.602;2023-08-17T12:39:23;9.30;99.90
59961;DHT22;55902;-37.980;-63.602;2023-08-17T12:41:54;9.30;99.90
59961;DHT22;55902;-37.980;-63.602;2023-08-17T12:44:25;9.30;99.90
59961;DHT22;55902;-37.980;-63.602;2023-08-17T12:46:55;9.30;99.90
59961;DHT22;55902;-37.980;-63.602;2023-08-17T12:49:23;9.30;99.90
59961;DHT22;55902;-37.980;-63.602;2023-08-17T12:51:50;9.30;99.90
59961;DHT22;55902;-37.980;-63.602;2023-08-17T12:54:18;9.30;99.90
59961;DHT22;55902;-37.980;-63.602;2023-08-17T12:56:45;9.30;99.90
59961;DHT22;55902;-37.980;-63.602;2023-08-17T12:59:12;9.30;99.90
59961;DHT22;55902;-37.980;-63.602;2023-08-17T13:01:40;9.30;99.90
59961;DHT22;55902;-37.980;-63.602;2023-08-17T13:04:10;9.30;99.90
59961;DHT22;55902;-37.980;-63.602;2023-08-17T13:06:38;9.20;99.90
59961;DHT22;55902;-37.980;-63.602;2023-08-17T13:09:05;9.20;99.90
59961;DHT22;55902;-37.980;-63.602;2023-08-17T13:11:33;9.10;99.90
59961;DHT22;55902;-37.980;-63.602;2023-08-17T13:14:00;9.10;99.90
59961;DHT22;55902;-37.980;-63.602;2023-08-17T13:16:27;9.10;99.90
59961;DHT22;55902;-37.980;-63.602;2023-08-17T13:18:54;9.10;99.90
59961;DHT22;55902;-37.980;-63.602;2023-08-17T13:21:21;9.20;99.90
59961;DHT22;55902;-37.980;-63.602;2023-08-17T13:23:48;9.20;99.90
59961;DHT22;55902;-37.980;-63.602;2023-08-17T13:26:16;9.20;99.90
59961;DHT22;55902;-37.980;-63.602;2023-08-17T13:28:44;9.10;99.90
59961;DHT22;55902;-37.980;-63.602;2023-08-17T13:31:11;9.20;99.90
59961;DHT22;55902;-37.980;-63.602;2023-08-17T13:33:38;9.20;99.90
59961;DHT22;55902;-37.980;-63.602;2023-08-17T13:36:06;9.20;99.90
59961;DHT22;55902;-37.980;-63.602;2023-08-17T13:38:33;9.20;99.90
59961;DHT22;55902;-37.980;-63.602;2023-08-17T13:41:00;9.30;99.90
59961;DHT22;55902;-37.980;-63.602;2023-08-17T13:43:27;9.30;99.90
59961;DHT22;55902;-37.980;-63.602;2023-08-17T13:45:57;9.30;99.90
59961;DHT22;55902;-37.980;-63.602;2023-08-17T13:48:24;9.40;99.90
59961;DHT22;55902;-37.980;-63.602;2023-08-17T13:50:51;9.50;99.90
59961;DHT22;55902;-37.980;-63.602;2023-08-17T13:53:18;9.50;99.90
59961;DHT22;55902;-37.980;-63.602;2023-08-17T13:55:46;9.50;99.90
59961;DHT22;55902;-37.980;-63.602;2023-08-17T13:58:14;9.50;99.90
59961;DHT22;55902;-37.980;-63.602;2023-08-17T14:00:42;9.50;99.90
59961;DHT22;55902;-37.980;-63.602;2023-08-17T14:03:09;9.60;99.90
59961;DHT22;55902;-37.980;-63.602;2023-08-17T14:05:36;9.60;99.90
59961;DHT22;55902;-37.980;-63.602;2023-08-17T14:08:07;9.70;99.90
59961;DHT22;55902;-37.980;-63.602;2023-08-17T14:10:37;9.70;99.90
59961;DHT22;55902;-37.980;-63.602;2023-08-17T14:13:04;9.70;99.90
59961;DHT22;55902;-37.980;-63.602;2023-08-17T14:15:34;9.80;99.90
59961;DHT22;55902;-37.980;-63.602;2023-08-17T14:18:01;9.80;99.90
59961;DHT22;55902;-37.980;-63.602;2023-08-17T14:20:30;9.80;99.90
59961;DHT22;55902;-37.980;-63.602;2023-08-17T14:22:57;9.90;99.90
59961;DHT22;55902;-37.980;-63.602;2023-08-17T14:25:24;10.00;99.90
59961;DHT22;55902;-37.980;-63.602;2023-08-17T14:27:51;10.00;99.90
59961;DHT22;55902;-37.980;-63.602;2023-08-17T14:30:18;10.10;99.90
59961;DHT22;55902;-37.980;-63.602;2023-08-17T14:32:45;10.20;99.90
59961;DHT22;55902;-37.980;-63.602;2023-08-17T14:35:12;10.30;99.90
59961;DHT22;55902;-37.980;-63.602;2023-08-17T14:37:40;10.30;99.90
59961;DHT22;55902;-37.980;-63.602;2023-08-17T14:40:07;10.40;99.90
59961;DHT22;55902;-37.980;-63.602;2023-08-17T14:42:34;10.50;99.90
59961;DHT22;55902;-37.980;-63.602;2023-08-17T14:45:01;10.50;99.90
59961;DHT22;55902;-37.980;-63.602;2023-08-17T14:47:28;10.60;99.90
59961;DHT22;55902;-37.980;-63.602;2023-08-17T14:49:56;10.60;99.90
59961;DHT22;55902;-37.980;-63.602;2023-08-17T14:52:23;10.70;99.90
59961;DHT22;55902;-37.980;-63.602;2023-08-17T14:54:50;10.70;99.90
59961;DHT22;55902;-37.980;-63.602;2023-08-17T14:57:17;10.80;99.90
59961;DHT22;55902;-37.980;-63.602;2023-08-17T14:59:48;10.80;99.90
59961;DHT22;55902;-37.980;-63.602;2023-08-17T15:02:18;10.80;99.90
59961;DHT22;55902;-37.980;-63.602;2023-08-17T15:04:46;10.80;99.90
59961;DHT22;55902;-37.980;-63.602;2023-08-17T15:07:31;10.90;99.90
59961;DHT22;55902;-37.980;-63.602;2023-08-17T15:09:58;11.10;99.90
59961;DHT22;55902;-37.980;-63.602;2023-08-17T15:12:25;11.10;99.90
59961;DHT22;55902;-37.980;-63.602;2023-08-17T15:14:53;11.20;99.90
59961;DHT22;55902;-37.980;-63.602;2023-08-17T15:17:23;11.10;99.90
59961;DHT22;55902;-37.980;-63.602;2023-08-17T15:19:57;11.00;99.90
59961;DHT22;55902;-37.980;-63.602;2023-08-17T15:22:25;10.90;99.90
59961;DHT22;55902;-37.980;-63.602;2023-08-17T15:24:57;10.90;99.90
59961;DHT22;55902;-37.980;-63.602;2023-08-17T15:27:24;10.80;99.90
59961;DHT22;55902;-37.980;-63.602;2023-08-17T15:29:57;10.80;99.90
59961;DHT22;55902;-37.980;-63.602;2023-08-17T15:32:25;10.70;99.90
59961;DHT22;55902;-37.980;-63.602;2023-08-17T15:34:55;10.60;99.90
59961;DHT22;55902;-37.980;-63.602;2023-08-17T15:37:26;10.50;99.90
59961;DHT22;55902;-37.980;-63.602;2023-08-17T15:39:54;10.50;99.90
59961;DHT22;55902;-37.980;-63.602;2023-08-17T15:42:22;10.40;99.90
59961;DHT22;55902;-37.980;-63.602;2023-08-17T15:44:50;10.50;99.90
59961;DHT22;55902;-37.980;-63.602;2023-08-17T15:47:18;10.40;99.90
59961;DHT22;55902;-37.980;-63.602;2023-08-17T15:49:45;10.40;99.90
59961;DHT22;55902;-37.980;-63.602;2023-08-17T15:52:13;10.40;99.90